sensor_id;sensor_type;location;lat;lon;timestamp;P1;durP1;ratioP1;P2;durP2;ratioP2
6840;SDS011;3458;53.678;14.080;2024-01-11T00:00:48;31.67;;;12.00;;
6840;SDS011;3458;53.678;14.080;2024-01-11T00:03:13;25.83;;;11.87;;
6840;SDS011;3458;53.678;14.080;2024-01-11T00:05:39;24.20;;;11.87;;
6840;SDS011;3458;53.678;14.080;2024-01-11T00:08:05;27.67;;;12.60;;
6840;SDS011;3458;53.678;14.080;2024-01-11T00:10:30;32.87;;;13.47;;
6840;SDS011;3458;53.678;14.080;2024-01-11T00:12:56;31.93;;;12.53;;
6840;SDS011;3458;53.678;14.080;2024-01-11T00:15:21;25.97;;;11.33;;
6840;SDS011;3458;53.678;14.080;2024-01-11T00:17:47;25.93;;;11.03;;
6840;SDS011;3458;53.678;14.080;2024-01-11T00:20:12;25.93;;;10.43;;
6840;SDS011;3458;53.678;14.080;2024-01-11T00:22:38;22.47;;;9.23;;
6840;SDS011;3458;53.678;14.080;2024-01-11T00:25:03;34.23;;;12.43;;
6840;SDS011;3458;53.678;14.080;2024-01-11T00:27:29;25.20;;;12.63;;
6840;SDS011;3458;53.678;14.080;2024-01-11T00:29:55;22.93;;;9.33;;
6840;SDS011;3458;53.678;14.080;2024-01-11T00:32:20;22.30;;;10.43;;
6840;SDS011;3458;53.678;14.080;2024-01-11T00:34:46;29.93;;;9.40;;
6840;SDS011;3458;53.678;14.080;2024-01-11T00:37:12;18.90;;;9.13;;
6840;SDS011;3458;53.678;14.080;2024-01-11T00:39:37;20.93;;;9.40;;
6840;SDS011;3458;53.678;14.080;2024-01-11T00:42:03;21.97;;;12.10;;
6840;SDS011;3458;53.678;14.080;2024-01-11T00:44:29;24.37;;;11.50;;
6840;SDS011;3458;53.678;14.080;2024-01-11T00:46:54;25.60;;;10.73;;
6840;SDS011;3458;53.678;14.080;2024-01-11T00:49:20;25.70;;;10.40;;
6840;SDS011;3458;53.678;14.080;2024-01-11T00:51:46;22.57;;;10.27;;
6840;SDS011;3458;53.678;14.080;2024-01-11T00:54:12;27.70;;;10.43;;
6840;SDS011;3458;53.678;14.080;2024-01-11T00:56:37;21.10;;;9.97;;
6840;SDS011;3458;53.678;14.080;2024-01-11T00:59:03;26.87;;;10.40;;
6840;SDS011;3458;53.678;14.080;2024-01-11T01:01:29;24.90;;;9.83;;
6840;SDS011;3458;53.678;14.080;2024-01-11T01:03:54;29.00;;;10.30;;
6840;SDS011;3458;53.678;14.080;2024-01-11T01:06:20;21.73;;;9.70;;
6840;SDS011;3458;53.678;14.080;2024-01-11T01:08:45;25.77;;;11.53;;
6840;SDS011;3458;53.678;14.080;2024-01-11T01:11:11;23.60;;;10.30;;
6840;SDS011;3458;53.678;14.080;2024-01-11T01:13:36;22.50;;;10.73;;
6840;SDS011;3458;53.678;14.080;2024-01-11T01:16:02;25.27;;;11.10;;
6840;SDS011;3458;53.678;14.080;2024-01-11T01:18:27;21.37;;;10.47;;
6840;SDS011;3458;53.678;14.080;2024-01-11T01:20:53;26.10;;;11.30;;
6840;SDS011;3458;53.678;14.080;2024-01-11T01:23:18;28.00;;;10.97;;
6840;SDS011;3458;53.678;14.080;2024-01-11T01:25:44;30.60;;;11.30;;
6840;SDS011;3458;53.678;14.080;2024-01-11T01:28:10;30.43;;;12.43;;
6840;SDS011;3458;53.678;14.080;2024-01-11T01:30:35;24.13;;;11.17;;
6840;SDS011;3458;53.678;14.080;2024-01-11T01:33:01;28.53;;;10.50;;
6840;SDS011;3458;53.678;14.080;2024-01-11T01:35:27;26.77;;;11.03;;
6840;SDS011;3458;53.678;14.080;2024-01-11T01:37:52;24.90;;;11.53;;
6840;SDS011;3458;53.678;14.080;2024-01-11T01:40:18;29.10;;;12.07;;
6840;SDS011;3458;53.678;14.080;2024-01-11T01:42:43;25.33;;;11.27;;
6840;SDS011;3458;53.678;14.080;2024-01-11T01:45:10;25.03;;;11.83;;
6840;SDS011;3458;53.678;14.080;2024-01-11T01:47:36;27.77;;;12.13;;
6840;SDS011;3458;53.678;14.080;2024-01-11T01:50:04;30.83;;;13.03;;
6840;SDS011;3458;53.678;14.080;2024-01-11T01:52:30;23.17;;;10.37;;
6840;SDS011;3458;53.678;14.080;2024-01-11T01:54:58;32.20;;;12.70;;
6840;SDS011;3458;53.678;14.080;2024-01-11T01:57:24;21.30;;;10.90;;
6840;SDS011;3458;53.678;14.080;2024-01-11T01:59:51;23.87;;;11.83;;
6840;SDS011;3458;53.678;14.080;2024-01-11T02:02:20;25.07;;;12.43;;
6840;SDS011;3458;53.678;14.080;2024-01-11T02:04:46;28.30;;;12.80;;
6840;SDS011;3458;53.678;14.080;2024-01-11T02:07:11;19.83;;;11.10;;
6840;SDS011;3458;53.678;14.080;2024-01-11T02:09:39;25.40;;;10.17;;
6840;SDS011;3458;53.678;14.080;2024-01-11T02:12:05;25.17;;;11.67;;
6840;SDS011;3458;53.678;14.080;2024-01-11T02:14:31;21.33;;;10.50;;
6840;SDS011;3458;53.678;14.080;2024-01-11T02:16:57;25.40;;;12.37;;
6840;SDS011;3458;53.678;14.080;2024-01-11T02:19:22;23.87;;;10.97;;
6840;SDS011;3458;53.678;14.080;2024-01-11T02:21:48;21.90;;;11.57;;
6840;SDS011;3458;53.678;14.080;2024-01-11T02:24:17;21.20;;;11.07;;
6840;SDS011;3458;53.678;14.080;2024-01-11T02:27:02;28.77;;;12.30;;
6840;SDS011;3458;53.678;14.080;2024-01-11T02:29:29;21.27;;;11.70;;
6840;SDS011;3458;53.678;14.080;2024-01-11T02:31:56;25.17;;;11.20;;
6840;SDS011;3458;53.678;14.080;2024-01-11T02:34:25;18.27;;;9.97;;
6840;SDS011;3458;53.678;14.080;2024-01-11T02:36:53;20.23;;;10.87;;
6840;SDS011;3458;53.678;14.080;2024-01-11T02:39:19;23.03;;;11.30;;
6840;SDS011;3458;53.678;14.080;2024-01-11T02:41:47;17.57;;;9.10;;
6840;SDS011;3458;53.678;14.080;2024-01-11T02:44:15;20.23;;;10.90;;
6840;SDS011;3458;53.678;14.080;2024-01-11T02:46:40;21.10;;;9.10;;
6840;SDS011;3458;53.678;14.080;2024-01-11T02:49:06;17.90;;;8.77;;
6840;SDS011;3458;53.678;14.080;2024-01-11T02:51:31;20.80;;;9.90;;
6840;SDS011;3458;53.678;14.080;2024-01-11T02:53:57;18.87;;;9.93;;
6840;SDS011;3458;53.678;14.080;2024-01-11T02:56:23;19.27;;;10.17;;
6840;SDS011;3458;53.678;14.080;2024-01-11T02:58:48;18.30;;;9.57;;
6840;SDS011;3458;53.678;14.080;2024-01-11T03:01:14;18.03;;;10.10;;
6840;SDS011;3458;53.678;14.080;2024-01-11T03:03:39;21.37;;;9.70;;
6840;SDS011;3458;53.678;14.080;2024-01-11T03:06:05;20.03;;;9.07;;
6840;SDS011;3458;53.678;14.080;2024-01-11T03:08:31;18.80;;;9.47;;
6840;SDS011;3458;53.678;14.080;2024-01-11T03:10:56;17.33;;;8.70;;
6840;SDS011;3458;53.678;14.080;2024-01-11T03:13:22;19.13;;;9.80;;
6840;SDS011;3458;53.678;14.080;2024-01-11T03:15:48;20.77;;;10.27;;
6840;SDS011;3458;53.678;14.080;2024-01-11T03:18:13;16.67;;;8.57;;
6840;SDS011;3458;53.678;14.080;2024-01-11T03:20:39;20.80;;;9.73;;
6840;SDS011;3458;53.678;14.080;2024-01-11T03:23:04;16.67;;;8.40;;
6840;SDS011;3458;53.678;14.080;2024-01-11T03:25:30;21.53;;;10.37;;
6840;SDS011;3458;53.678;14.080;2024-01-11T03:27:56;32.37;;;14.00;;
6840;SDS011;3458;53.678;14.080;2024-01-11T03:30:22;21.07;;;9.93;;
6840;SDS011;3458;53.678;14.080;2024-01-11T03:32:48;19.87;;;10.87;;
6840;SDS011;3458;53.678;14.080;2024-01-11T03:35:14;21.80;;;9.27;;
6840;SDS011;3458;53.678;14.080;2024-01-11T03:37:39;17.97;;;9.00;;
6840;SDS011;3458;53.678;14.080;2024-01-11T03:40:05;24.87;;;8.77;;
6840;SDS011;3458;53.678;14.080;2024-01-11T03:42:31;20.50;;;10.37;;
6840;SDS011;3458;53.678;14.080;2024-01-11T03:44:56;29.20;;;12.87;;
6840;SDS011;3458;53.678;14.080;2024-01-11T03:47:22;24.03;;;10.90;;
6840;SDS011;3458;53.678;14.080;2024-01-11T03:49:47;22.13;;;10.30;;
6840;SDS011;3458;53.678;14.080;2024-01-11T03:52:13;17.50;;;9.27;;
6840;SDS011;3458;53.678;14.080;2024-01-11T03:54:38;25.33;;;10.83;;
6840;SDS011;3458;53.678;14.080;2024-01-11T03:57:04;19.77;;;9.97;;
6840;SDS011;3458;53.678;14.080;2024-01-11T03:59:31;26.57;;;11.70;;
6840;SDS011;3458;53.678;14.080;2024-01-11T04:01:57;23.63;;;10.47;;
6840;SDS011;3458;53.678;14.080;2024-01-11T04:04:23;20.33;;;9.53;;
6840;SDS011;3458;53.678;14.080;2024-01-11T04:06:48;25.63;;;11.27;;
6840;SDS011;3458;53.678;14.080;2024-01-11T04:09:14;21.03;;;10.73;;
6840;SDS011;3458;53.678;14.080;2024-01-11T04:11:40;26.17;;;11.57;;
6840;SDS011;3458;53.678;14.080;2024-01-11T04:14:05;23.17;;;11.33;;
6840;SDS011;3458;53.678;14.080;2024-01-11T04:16:31;34.23;;;13.83;;
6840;SDS011;3458;53.678;14.080;2024-01-11T04:18:57;19.80;;;10.53;;
6840;SDS011;3458;53.678;14.080;2024-01-11T04:21:26;25.70;;;11.70;;
6840;SDS011;3458;53.678;14.080;2024-01-11T04:23:53;25.60;;;11.10;;
6840;SDS011;3458;53.678;14.080;2024-01-11T04:26:19;21.20;;;10.70;;
6840;SDS011;3458;53.678;14.080;2024-01-11T04:28:45;20.80;;;10.10;;
6840;SDS011;3458;53.678;14.080;2024-01-11T04:31:11;25.63;;;10.60;;
6840;SDS011;3458;53.678;14.080;2024-01-11T04:33:40;21.93;;;10.20;;
6840;SDS011;3458;53.678;14.080;2024-01-11T04:36:07;22.97;;;10.83;;
6840;SDS011;3458;53.678;14.080;2024-01-11T04:38:33;24.47;;;11.57;;
6840;SDS011;3458;53.678;14.080;2024-01-11T04:40:58;31.83;;;9.90;;
6840;SDS011;3458;53.678;14.080;2024-01-11T04:43:24;21.70;;;11.23;;
6840;SDS011;3458;53.678;14.080;2024-01-11T04:45:49;25.33;;;11.20;;
6840;SDS011;3458;53.678;14.080;2024-01-11T04:48:16;20.90;;;10.40;;
6840;SDS011;3458;53.678;14.080;2024-01-11T04:50:42;26.40;;;11.80;;
6840;SDS011;3458;53.678;14.080;2024-01-11T04:53:08;26.33;;;14.37;;
6840;SDS011;3458;53.678;14.080;2024-01-11T04:55:34;30.17;;;13.97;;
6840;SDS011;3458;53.678;14.080;2024-01-11T04:57:59;26.80;;;11.77;;
6840;SDS011;3458;53.678;14.080;2024-01-11T05:00:25;25.67;;;11.47;;
6840;SDS011;3458;53.678;14.080;2024-01-11T05:02:50;28.67;;;13.00;;
6840;SDS011;3458;53.678;14.080;2024-01-11T05:05:16;25.60;;;12.27;;
6840;SDS011;3458;53.678;14.080;2024-01-11T05:07:41;30.57;;;13.60;;
6840;SDS011;3458;53.678;14.080;2024-01-11T05:10:07;24.50;;;11.70;;
6840;SDS011;3458;53.678;14.080;2024-01-11T05:12:32;26.87;;;12.93;;
6840;SDS011;3458;53.678;14.080;2024-01-11T05:14:58;33.20;;;14.03;;
6840;SDS011;3458;53.678;14.080;2024-01-11T05:17:24;27.83;;;12.40;;
6840;SDS011;3458;53.678;14.080;2024-01-11T05:19:50;24.57;;;11.70;;
6840;SDS011;3458;53.678;14.080;2024-01-11T05:22:16;28.60;;;12.90;;
6840;SDS011;3458;53.678;14.080;2024-01-11T05:24:42;26.70;;;12.47;;
6840;SDS011;3458;53.678;14.080;2024-01-11T05:27:08;30.50;;;14.00;;
6840;SDS011;3458;53.678;14.080;2024-01-11T05:29:33;31.00;;;14.53;;
6840;SDS011;3458;53.678;14.080;2024-01-11T05:31:59;29.83;;;12.70;;
6840;SDS011;3458;53.678;14.080;2024-01-11T05:34:24;24.83;;;12.40;;
6840;SDS011;3458;53.678;14.080;2024-01-11T05:36:50;29.13;;;13.17;;
6840;SDS011;3458;53.678;14.080;2024-01-11T05:39:15;31.53;;;12.40;;
6840;SDS011;3458;53.678;14.080;2024-01-11T05:41:44;23.33;;;12.63;;
6840;SDS011;3458;53.678;14.080;2024-01-11T05:44:10;29.47;;;13.33;;
6840;SDS011;3458;53.678;14.080;2024-01-11T05:46:35;30.00;;;12.33;;
6840;SDS011;3458;53.678;14.080;2024-01-11T05:49:01;25.17;;;12.07;;
6840;SDS011;3458;53.678;14.080;2024-01-11T05:51:26;25.13;;;12.77;;
6840;SDS011;3458;53.678;14.080;2024-01-11T05:53:52;27.90;;;13.30;;
6840;SDS011;3458;53.678;14.080;2024-01-11T05:56:18;25.30;;;11.97;;
6840;SDS011;3458;53.678;14.080;2024-01-11T05:58:45;26.30;;;12.50;;
6840;SDS011;3458;53.678;14.080;2024-01-11T06:01:11;29.10;;;13.47;;
6840;SDS011;3458;53.678;14.080;2024-01-11T06:03:37;32.63;;;14.27;;
6840;SDS011;3458;53.678;14.080;2024-01-11T06:06:04;32.20;;;11.50;;
6840;SDS011;3458;53.678;14.080;2024-01-11T06:08:30;26.10;;;14.17;;
6840;SDS011;3458;53.678;14.080;2024-01-11T06:10:56;28.30;;;13.70;;
6840;SDS011;3458;53.678;14.080;2024-01-11T06:13:22;26.80;;;13.70;;
6840;SDS011;3458;53.678;14.080;2024-01-11T06:15:47;25.03;;;12.60;;
6840;SDS011;3458;53.678;14.080;2024-01-11T06:18:17;26.93;;;14.10;;
6840;SDS011;3458;53.678;14.080;2024-01-11T06:20:43;37.60;;;13.37;;
6840;SDS011;3458;53.678;14.080;2024-01-11T06:23:08;25.33;;;13.17;;
6840;SDS011;3458;53.678;14.080;2024-01-11T06:25:34;31.47;;;13.53;;
6840;SDS011;3458;53.678;14.080;2024-01-11T06:27:59;31.83;;;14.77;;
6840;SDS011;3458;53.678;14.080;2024-01-11T06:30:25;26.30;;;12.90;;
6840;SDS011;3458;53.678;14.080;2024-01-11T06:32:50;27.43;;;14.27;;
6840;SDS011;3458;53.678;14.080;2024-01-11T06:35:16;31.10;;;14.97;;
6840;SDS011;3458;53.678;14.080;2024-01-11T06:37:41;26.87;;;12.17;;
6840;SDS011;3458;53.678;14.080;2024-01-11T06:40:07;27.83;;;12.30;;
6840;SDS011;3458;53.678;14.080;2024-01-11T06:42:33;22.37;;;11.57;;
6840;SDS011;3458;53.678;14.080;2024-01-11T06:44:59;29.47;;;13.03;;
6840;SDS011;3458;53.678;14.080;2024-01-11T06:47:24;30.07;;;12.73;;
6840;SDS011;3458;53.678;14.080;2024-01-11T06:49:53;25.57;;;13.57;;
6840;SDS011;3458;53.678;14.080;2024-01-11T06:52:22;29.90;;;13.93;;
6840;SDS011;3458;53.678;14.080;2024-01-11T06:54:48;34.57;;;15.33;;
6840;SDS011;3458;53.678;14.080;2024-01-11T06:57:13;28.00;;;13.40;;
6840;SDS011;3458;53.678;14.080;2024-01-11T06:59:39;23.50;;;10.77;;
6840;SDS011;3458;53.678;14.080;2024-01-11T07:02:05;34.00;;;14.17;;
6840;SDS011;3458;53.678;14.080;2024-01-11T07:04:30;25.67;;;12.00;;
6840;SDS011;3458;53.678;14.080;2024-01-11T07:06:56;31.77;;;14.03;;
6840;SDS011;3458;53.678;14.080;2024-01-11T07:09:22;29.70;;;12.80;;
6840;SDS011;3458;53.678;14.080;2024-01-11T07:11:47;26.60;;;12.97;;
6840;SDS011;3458;53.678;14.080;2024-01-11T07:14:13;23.90;;;12.90;;
6840;SDS011;3458;53.678;14.080;2024-01-11T07:16:38;27.70;;;13.70;;
6840;SDS011;3458;53.678;14.080;2024-01-11T07:19:04;30.80;;;14.30;;
6840;SDS011;3458;53.678;14.080;2024-01-11T07:21:29;27.27;;;12.30;;
6840;SDS011;3458;53.678;14.080;2024-01-11T07:23:56;24.87;;;13.03;;
6840;SDS011;3458;53.678;14.080;2024-01-11T07:26:22;25.90;;;12.20;;
6840;SDS011;3458;53.678;14.080;2024-01-11T07:28:48;26.47;;;11.83;;
6840;SDS011;3458;53.678;14.080;2024-01-11T07:31:14;26.50;;;13.27;;
6840;SDS011;3458;53.678;14.080;2024-01-11T07:33:40;23.83;;;11.77;;
6840;SDS011;3458;53.678;14.080;2024-01-11T07:36:05;31.20;;;13.37;;
6840;SDS011;3458;53.678;14.080;2024-01-11T07:38:31;29.67;;;12.90;;
6840;SDS011;3458;53.678;14.080;2024-01-11T07:40:57;24.97;;;11.23;;
6840;SDS011;3458;53.678;14.080;2024-01-11T07:43:22;24.97;;;11.50;;
6840;SDS011;3458;53.678;14.080;2024-01-11T07:45:48;23.47;;;10.90;;
6840;SDS011;3458;53.678;14.080;2024-01-11T07:48:13;25.63;;;10.90;;
6840;SDS011;3458;53.678;14.080;2024-01-11T07:50:39;21.47;;;10.10;;
6840;SDS011;3458;53.678;14.080;2024-01-11T07:53:04;31.50;;;12.00;;
6840;SDS011;3458;53.678;14.080;2024-01-11T07:55:30;27.40;;;11.87;;
6840;SDS011;3458;53.678;14.080;2024-01-11T07:57:56;24.60;;;11.70;;
6840;SDS011;3458;53.678;14.080;2024-01-11T08:00:22;28.40;;;12.00;;
6840;SDS011;3458;53.678;14.080;2024-01-11T08:02:48;25.00;;;11.00;;
6840;SDS011;3458;53.678;14.080;2024-01-11T08:05:14;25.90;;;11.50;;
6840;SDS011;3458;53.678;14.080;2024-01-11T08:07:39;23.03;;;12.10;;
6840;SDS011;3458;53.678;14.080;2024-01-11T08:10:07;24.87;;;10.83;;
6840;SDS011;3458;53.678;14.080;2024-01-11T08:12:34;23.47;;;10.57;;
6840;SDS011;3458;53.678;14.080;2024-01-11T08:14:59;21.30;;;11.13;;
6840;SDS011;3458;53.678;14.080;2024-01-11T08:17:25;28.00;;;10.23;;
6840;SDS011;3458;53.678;14.080;2024-01-11T08:19:50;29.10;;;11.90;;
6840;SDS011;3458;53.678;14.080;2024-01-11T08:22:16;24.10;;;10.80;;
6840;SDS011;3458;53.678;14.080;2024-01-11T08:24:41;25.33;;;11.43;;
6840;SDS011;3458;53.678;14.080;2024-01-11T08:27:07;25.90;;;10.87;;
6840;SDS011;3458;53.678;14.080;2024-01-11T08:29:32;25.23;;;10.83;;
6840;SDS011;3458;53.678;14.080;2024-01-11T08:31:58;20.63;;;10.10;;
6840;SDS011;3458;53.678;14.080;2024-01-11T08:34:24;22.43;;;9.77;;
6840;SDS011;3458;53.678;14.080;2024-01-11T08:36:51;22.53;;;10.50;;
6840;SDS011;3458;53.678;14.080;2024-01-11T08:39:17;21.73;;;9.90;;
6840;SDS011;3458;53.678;14.080;2024-01-11T08:41:42;16.37;;;9.30;;
6840;SDS011;3458;53.678;14.080;2024-01-11T08:44:08;18.20;;;10.50;;
6840;SDS011;3458;53.678;14.080;2024-01-11T08:46:34;22.00;;;11.50;;
6840;SDS011;3458;53.678;14.080;2024-01-11T08:49:00;18.00;;;9.90;;
6840;SDS011;3458;53.678;14.080;2024-01-11T08:51:28;17.67;;;8.93;;
6840;SDS011;3458;53.678;14.080;2024-01-11T08:53:54;25.30;;;9.37;;
6840;SDS011;3458;53.678;14.080;2024-01-11T08:56:19;19.90;;;9.03;;
6840;SDS011;3458;53.678;14.080;2024-01-11T08:58:45;25.67;;;10.40;;
6840;SDS011;3458;53.678;14.080;2024-01-11T09:01:11;23.40;;;9.40;;
6840;SDS011;3458;53.678;14.080;2024-01-11T09:03:37;20.43;;;9.47;;
6840;SDS011;3458;53.678;14.080;2024-01-11T09:06:03;19.43;;;10.00;;
6840;SDS011;3458;53.678;14.080;2024-01-11T09:08:29;20.63;;;10.50;;
6840;SDS011;3458;53.678;14.080;2024-01-11T09:10:55;21.43;;;9.80;;
6840;SDS011;3458;53.678;14.080;2024-01-11T09:13:21;19.70;;;9.57;;
6840;SDS011;3458;53.678;14.080;2024-01-11T09:15:46;14.13;;;7.30;;
6840;SDS011;3458;53.678;14.080;2024-01-11T09:18:12;19.03;;;8.43;;
6840;SDS011;3458;53.678;14.080;2024-01-11T09:20:40;20.00;;;8.50;;
6840;SDS011;3458;53.678;14.080;2024-01-11T09:23:06;19.97;;;8.67;;
6840;SDS011;3458;53.678;14.080;2024-01-11T09:25:31;16.27;;;7.60;;
6840;SDS011;3458;53.678;14.080;2024-01-11T09:27:57;16.03;;;8.70;;
6840;SDS011;3458;53.678;14.080;2024-01-11T09:30:22;14.93;;;7.60;;
6840;SDS011;3458;53.678;14.080;2024-01-11T09:32:48;17.77;;;8.40;;
6840;SDS011;3458;53.678;14.080;2024-01-11T09:35:13;16.80;;;8.40;;
6840;SDS011;3458;53.678;14.080;2024-01-11T09:37:39;12.07;;;7.80;;
6840;SDS011;3458;53.678;14.080;2024-01-11T09:40:05;17.10;;;8.70;;
6840;SDS011;3458;53.678;14.080;2024-01-11T09:42:38;19.10;;;7.43;;
6840;SDS011;3458;53.678;14.080;2024-01-11T09:45:08;13.00;;;6.70;;
6840;SDS011;3458;53.678;14.080;2024-01-11T09:47:37;15.40;;;8.47;;
6840;SDS011;3458;53.678;14.080;2024-01-11T09:50:03;15.33;;;6.77;;
6840;SDS011;3458;53.678;14.080;2024-01-11T09:52:29;12.07;;;6.27;;
6840;SDS011;3458;53.678;14.080;2024-01-11T09:54:57;15.63;;;7.17;;
6840;SDS011;3458;53.678;14.080;2024-01-11T09:57:25;10.77;;;5.60;;
6840;SDS011;3458;53.678;14.080;2024-01-11T09:59:54;15.33;;;6.83;;
6840;SDS011;3458;53.678;14.080;2024-01-11T10:02:22;8.63;;;5.27;;
6840;SDS011;3458;53.678;14.080;2024-01-11T10:04:48;9.67;;;5.90;;
6840;SDS011;3458;53.678;14.080;2024-01-11T10:07:14;13.13;;;6.00;;
6840;SDS011;3458;53.678;14.080;2024-01-11T10:09:43;13.47;;;5.93;;
6840;SDS011;3458;53.678;14.080;2024-01-11T10:12:09;12.93;;;6.63;;
6840;SDS011;3458;53.678;14.080;2024-01-11T10:14:35;13.90;;;5.97;;
6840;SDS011;3458;53.678;14.080;2024-01-11T10:17:00;8.27;;;5.40;;
6840;SDS011;3458;53.678;14.080;2024-01-11T10:19:26;9.87;;;6.30;;
6840;SDS011;3458;53.678;14.080;2024-01-11T10:21:52;15.20;;;6.53;;
6840;SDS011;3458;53.678;14.080;2024-01-11T10:24:18;11.73;;;6.50;;
6840;SDS011;3458;53.678;14.080;2024-01-11T10:26:45;12.30;;;6.27;;
6840;SDS011;3458;53.678;14.080;2024-01-11T10:29:11;9.90;;;6.17;;
6840;SDS011;3458;53.678;14.080;2024-01-11T10:31:37;10.93;;;6.30;;
6840;SDS011;3458;53.678;14.080;2024-01-11T10:34:04;10.10;;;6.03;;
6840;SDS011;3458;53.678;14.080;2024-01-11T10:36:30;9.63;;;5.50;;
6840;SDS011;3458;53.678;14.080;2024-01-11T10:38:56;13.13;;;7.03;;
6840;SDS011;3458;53.678;14.080;2024-01-11T10:41:23;10.93;;;6.10;;
6840;SDS011;3458;53.678;14.080;2024-01-11T10:43:49;9.93;;;6.20;;
6840;SDS011;3458;53.678;14.080;2024-01-11T10:46:17;11.53;;;6.80;;
6840;SDS011;3458;53.678;14.080;2024-01-11T10:48:47;9.90;;;5.60;;
6840;SDS011;3458;53.678;14.080;2024-01-11T10:51:14;12.13;;;6.37;;
6840;SDS011;3458;53.678;14.080;2024-01-11T10:53:45;8.90;;;5.87;;
6840;SDS011;3458;53.678;14.080;2024-01-11T10:56:12;9.23;;;5.27;;
6840;SDS011;3458;53.678;14.080;2024-01-11T10:58:42;9.80;;;5.53;;
6840;SDS011;3458;53.678;14.080;2024-01-11T11:01:08;15.57;;;7.33;;
6840;SDS011;3458;53.678;14.080;2024-01-11T11:03:38;10.97;;;6.67;;
6840;SDS011;3458;53.678;14.080;2024-01-11T11:06:05;11.13;;;5.80;;
6840;SDS011;3458;53.678;14.080;2024-01-11T11:08:31;10.83;;;6.20;;
6840;SDS011;3458;53.678;14.080;2024-01-11T11:11:00;13.50;;;6.10;;
6840;SDS011;3458;53.678;14.080;2024-01-11T11:13:28;16.03;;;6.73;;
6840;SDS011;3458;53.678;14.080;2024-01-11T11:15:54;12.63;;;5.73;;
6840;SDS011;3458;53.678;14.080;2024-01-11T11:18:22;8.60;;;5.20;;
6840;SDS011;3458;53.678;14.080;2024-01-11T11:20:49;11.60;;;6.77;;
6840;SDS011;3458;53.678;14.080;2024-01-11T11:23:16;13.13;;;6.20;;
6840;SDS011;3458;53.678;14.080;2024-01-11T11:25:43;9.70;;;5.80;;
6840;SDS011;3458;53.678;14.080;2024-01-11T11:28:11;9.17;;;5.03;;
6840;SDS011;3458;53.678;14.080;2024-01-11T11:30:37;10.70;;;5.40;;
6840;SDS011;3458;53.678;14.080;2024-01-11T11:33:08;13.20;;;5.83;;
6840;SDS011;3458;53.678;14.080;2024-01-11T11:35:40;9.17;;;5.50;;
6840;SDS011;3458;53.678;14.080;2024-01-11T11:38:07;10.03;;;5.67;;
6840;SDS011;3458;53.678;14.080;2024-01-11T11:40:33;11.77;;;5.43;;
6840;SDS011;3458;53.678;14.080;2024-01-11T11:43:04;13.00;;;5.80;;
6840;SDS011;3458;53.678;14.080;2024-01-11T11:45:30;8.73;;;5.47;;
6840;SDS011;3458;53.678;14.080;2024-01-11T11:47:56;8.63;;;5.07;;
6840;SDS011;3458;53.678;14.080;2024-01-11T11:50:22;9.30;;;5.50;;
6840;SDS011;3458;53.678;14.080;2024-01-11T11:52:53;10.67;;;5.03;;
6840;SDS011;3458;53.678;14.080;2024-01-11T11:55:22;14.43;;;6.50;;
6840;SDS011;3458;53.678;14.080;2024-01-11T11:57:49;13.83;;;5.33;;
6840;SDS011;3458;53.678;14.080;2024-01-11T12:00:17;11.00;;;4.63;;
6840;SDS011;3458;53.678;14.080;2024-01-11T12:02:42;11.97;;;6.10;;
6840;SDS011;3458;53.678;14.080;2024-01-11T12:05:08;10.70;;;5.00;;
6840;SDS011;3458;53.678;14.080;2024-01-11T12:07:33;8.40;;;4.10;;
6840;SDS011;3458;53.678;14.080;2024-01-11T12:09:59;5.07;;;4.50;;
6840;SDS011;3458;53.678;14.080;2024-01-11T12:12:25;8.33;;;4.67;;
6840;SDS011;3458;53.678;14.080;2024-01-11T12:14:51;11.73;;;4.33;;
6840;SDS011;3458;53.678;14.080;2024-01-11T12:17:18;7.93;;;3.97;;
6840;SDS011;3458;53.678;14.080;2024-01-11T12:19:44;5.27;;;3.90;;
6840;SDS011;3458;53.678;14.080;2024-01-11T12:22:09;7.60;;;4.07;;
6840;SDS011;3458;53.678;14.080;2024-01-11T12:24:35;7.13;;;3.90;;
6840;SDS011;3458;53.678;14.080;2024-01-11T12:29:44;4.00;;;3.17;;
6840;SDS011;3458;53.678;14.080;2024-01-11T12:32:09;5.30;;;3.80;;
6840;SDS011;3458;53.678;14.080;2024-01-11T12:34:40;8.43;;;3.83;;
6840;SDS011;3458;53.678;14.080;2024-01-11T12:37:07;6.53;;;3.53;;
6840;SDS011;3458;53.678;14.080;2024-01-11T12:39:34;9.80;;;4.00;;
6840;SDS011;3458;53.678;14.080;2024-01-11T12:42:02;8.13;;;3.77;;
6840;SDS011;3458;53.678;14.080;2024-01-11T12:44:28;9.13;;;4.27;;
6840;SDS011;3458;53.678;14.080;2024-01-11T12:46:54;8.27;;;4.13;;
6840;SDS011;3458;53.678;14.080;2024-01-11T12:49:19;6.63;;;3.57;;
6840;SDS011;3458;53.678;14.080;2024-01-11T12:51:45;6.60;;;4.97;;
6840;SDS011;3458;53.678;14.080;2024-01-11T12:54:13;4.20;;;3.30;;
6840;SDS011;3458;53.678;14.080;2024-01-11T12:56:45;6.60;;;3.83;;
6840;SDS011;3458;53.678;14.080;2024-01-11T12:59:11;3.77;;;3.47;;
6840;SDS011;3458;53.678;14.080;2024-01-11T13:01:37;7.03;;;3.27;;
6840;SDS011;3458;53.678;14.080;2024-01-11T13:04:04;4.50;;;3.40;;
6840;SDS011;3458;53.678;14.080;2024-01-11T13:06:30;6.43;;;3.60;;
6840;SDS011;3458;53.678;14.080;2024-01-11T13:08:56;10.53;;;3.57;;
6840;SDS011;3458;53.678;14.080;2024-01-11T13:11:22;10.70;;;3.60;;
6840;SDS011;3458;53.678;14.080;2024-01-11T13:13:49;6.13;;;3.73;;
6840;SDS011;3458;53.678;14.080;2024-01-11T13:16:15;9.60;;;4.30;;
6840;SDS011;3458;53.678;14.080;2024-01-11T13:18:43;7.53;;;3.60;;
6840;SDS011;3458;53.678;14.080;2024-01-11T13:21:09;4.47;;;3.70;;
6840;SDS011;3458;53.678;14.080;2024-01-11T13:23:37;5.50;;;3.57;;
6840;SDS011;3458;53.678;14.080;2024-01-11T13:26:02;3.80;;;3.10;;
6840;SDS011;3458;53.678;14.080;2024-01-11T13:28:29;4.10;;;3.70;;
6840;SDS011;3458;53.678;14.080;2024-01-11T13:30:55;11.43;;;3.40;;
6840;SDS011;3458;53.678;14.080;2024-01-11T13:33:21;5.40;;;3.77;;
6840;SDS011;3458;53.678;14.080;2024-01-11T13:35:48;5.60;;;3.50;;
6840;SDS011;3458;53.678;14.080;2024-01-11T13:38:14;6.13;;;3.83;;
6840;SDS011;3458;53.678;14.080;2024-01-11T13:40:40;7.17;;;4.73;;
6840;SDS011;3458;53.678;14.080;2024-01-11T13:43:08;5.60;;;3.43;;
6840;SDS011;3458;53.678;14.080;2024-01-11T13:45:34;8.23;;;4.93;;
6840;SDS011;3458;53.678;14.080;2024-01-11T13:48:01;8.20;;;4.20;;
6840;SDS011;3458;53.678;14.080;2024-01-11T13:50:28;6.30;;;3.90;;
6840;SDS011;3458;53.678;14.080;2024-01-11T13:52:53;12.00;;;4.60;;
6840;SDS011;3458;53.678;14.080;2024-01-11T13:55:19;7.13;;;4.30;;
6840;SDS011;3458;53.678;14.080;2024-01-11T13:57:46;6.40;;;4.13;;
6840;SDS011;3458;53.678;14.080;2024-01-11T14:00:12;6.87;;;4.80;;
6840;SDS011;3458;53.678;14.080;2024-01-11T14:02:39;7.93;;;4.23;;
6840;SDS011;3458;53.678;14.080;2024-01-11T14:05:05;9.67;;;4.37;;
6840;SDS011;3458;53.678;14.080;2024-01-11T14:07:36;11.07;;;3.70;;
6840;SDS011;3458;53.678;14.080;2024-01-11T14:10:04;4.43;;;3.80;;
6840;SDS011;3458;53.678;14.080;2024-01-11T14:12:30;7.17;;;4.30;;
6840;SDS011;3458;53.678;14.080;2024-01-11T14:14:56;7.73;;;4.50;;
6840;SDS011;3458;53.678;14.080;2024-01-11T14:17:22;5.37;;;4.00;;
6840;SDS011;3458;53.678;14.080;2024-01-11T14:19:48;9.73;;;4.10;;
6840;SDS011;3458;53.678;14.080;2024-01-11T14:22:13;6.77;;;4.20;;
6840;SDS011;3458;53.678;14.080;2024-01-11T14:24:39;6.50;;;3.67;;
6840;SDS011;3458;53.678;14.080;2024-01-11T14:27:05;7.13;;;4.00;;
6840;SDS011;3458;53.678;14.080;2024-01-11T14:29:31;13.20;;;4.03;;
6840;SDS011;3458;53.678;14.080;2024-01-11T14:31:56;11.30;;;3.30;;
6840;SDS011;3458;53.678;14.080;2024-01-11T14:34:22;31.20;;;12.70;;
6840;SDS011;3458;53.678;14.080;2024-01-11T14:36:47;8.20;;;4.60;;
6840;SDS011;3458;53.678;14.080;2024-01-11T14:39:13;6.00;;;4.20;;